This is the latest recevied weather packets stored in our database for station/object OK4PZ-5. If no packets are shown the sender has not sent any weather packets the latest 10 day(s).
| Time | Temp. | Humidity | Pressure | Rain* | Wind** | Luminosity | Snow |
|---|---|---|---|---|---|---|---|
| 1777387502 | 17.22° C | 31% | 1021 hPa | 0 mm | - | - | - |
| 1777386602 | 17.78° C | 32% | 1020 hPa | 0 mm | - | - | - |
| 1777385702 | 17.78° C | 31% | 1021 hPa | 0 mm | - | - | - |
| 1777384802 | 17.22° C | 32% | 1021 hPa | 0 mm | - | - | - |
| 1777383903 | 17.78° C | 32% | 1021 hPa | 0 mm | - | - | - |
| 1777383003 | 17.78° C | 33% | 1021 hPa | 0 mm | - | - | - |
| 1777382102 | 17.22° C | 33% | 1021 hPa | 0 mm | - | - | - |
| 1777381202 | 17.78° C | 30% | 1021 hPa | 0 mm | - | - | - |
| 1777380303 | 17.78° C | 31% | 1022 hPa | 0 mm | - | - | - |
| 1777379402 | 17.78° C | 30% | 1021 hPa | 0 mm | - | - | - |
| 1777378502 | 17.22° C | 32% | 1022 hPa | 0 mm | - | - | - |
| 1777377602 | 17.22° C | 31% | 1022 hPa | 0 mm | - | - | - |
| 1777376703 | 17.22° C | 31% | 1022 hPa | 0 mm | - | - | - |
| 1777375802 | 16.11° C | 32% | 1022 hPa | 0 mm | - | - | - |
| 1777374902 | 16.67° C | 30% | 1022 hPa | 0 mm | - | - | - |
| 1777374002 | 16.67° C | 33% | 1022 hPa | 0 mm | - | - | - |
| 1777373103 | 16.11° C | 35% | 1022 hPa | 0 mm | - | - | - |
| 1777372203 | 16.67° C | 32% | 1022 hPa | 0 mm | - | - | - |
| 1777371303 | 16.11° C | 33% | 1022 hPa | 0 mm | - | - | - |
| 1777370402 | 16.11° C | 33% | 1022 hPa | 0 mm | - | - | - |
| 1777369502 | 15° C | 36% | 1022 hPa | 0 mm | - | - | - |
| 1777368602 | 15.56° C | 33% | 1022 hPa | 0 mm | - | - | - |
| 1777367702 | 15° C | 35% | 1023 hPa | 0 mm | - | - | - |
| 1777366803 | 15° C | 35% | 1022 hPa | 0 mm | - | - | - |
| 1777365903 | 15° C | 35% | 1022 hPa | 0 mm | - | - | - |
* Rain latest hour (hover to see other rain measurements)
** Current wind speed in m/s (hover to see current wind gust speed)